createdAt,value
2022-12-14T00:01:54.434Z,40.65
2022-12-14T00:04:21.993Z,40.53
2022-12-14T00:06:49.541Z,40.31
2022-12-14T00:09:17.111Z,40.37
2022-12-14T00:11:44.569Z,40.69
2022-12-14T00:14:12.118Z,41.16
2022-12-14T00:16:39.616Z,40.93
2022-12-14T00:19:07.130Z,40.57
2022-12-14T00:21:34.770Z,40.64
2022-12-14T00:24:02.500Z,40.73
2022-12-14T00:26:32.019Z,40.75
2022-12-14T00:29:01.922Z,40.77
2022-12-14T00:31:31.462Z,40.52
2022-12-14T00:33:59.649Z,40.02
2022-12-14T00:36:27.639Z,39.74
2022-12-14T00:38:55.157Z,40.06
2022-12-14T00:41:22.787Z,39.68
2022-12-14T00:43:50.432Z,39.63
2022-12-14T00:46:18.587Z,39.86
2022-12-14T00:48:46.513Z,39.78
2022-12-14T00:51:15.366Z,39.59
2022-12-14T00:53:45.306Z,39.96
2022-12-14T00:56:12.920Z,39.54
2022-12-14T00:58:40.505Z,39.59
2022-12-14T01:01:14.661Z,40.18
2022-12-14T01:03:42.898Z,39.85
2022-12-14T01:06:19.789Z,39.87
2022-12-14T01:08:48.683Z,40.32
2022-12-14T01:11:16.259Z,40.05
2022-12-14T01:13:43.867Z,39.59
2022-12-14T01:16:15.551Z,40.09
2022-12-14T01:18:44.014Z,40.40
2022-12-14T01:21:16.370Z,39.55
2022-12-14T01:23:44.867Z,39.69
2022-12-14T01:26:14.037Z,39.60
2022-12-14T01:28:42.065Z,39.33
2022-12-14T01:31:12.510Z,39.02
2022-12-14T01:33:40.260Z,39.18
2022-12-14T01:36:13.068Z,39.66
2022-12-14T01:38:40.852Z,39.76
2022-12-14T01:41:09.952Z,39.34
2022-12-14T01:43:58.886Z,40.02
2022-12-14T01:46:32.228Z,40.12
2022-12-14T01:49:28.957Z,39.59
2022-12-14T01:51:57.250Z,38.93
2022-12-14T01:54:27.204Z,38.85
2022-12-14T01:56:55.536Z,38.31
2022-12-14T01:59:31.714Z,38.57
2022-12-14T02:02:02.462Z,39.05
2022-12-14T02:04:30.659Z,39.45
2022-12-14T02:07:01.278Z,39.42
2022-12-14T02:09:32.716Z,38.57
2022-12-14T02:12:11.912Z,39.17
2022-12-14T02:14:40.175Z,39.31
2022-12-14T02:17:09.020Z,39.53
2022-12-14T02:19:38.189Z,39.80
2022-12-14T02:22:24.828Z,40.77
2022-12-14T02:25:26.037Z,40.34
2022-12-14T02:28:20.853Z,41.17
2022-12-14T02:31:00.640Z,41.83
2022-12-14T02:33:39.033Z,41.02
2022-12-14T02:36:32.093Z,41.01
2022-12-14T02:39:28.294Z,41.44
2022-12-14T02:42:11.334Z,41.84
2022-12-14T02:45:10.074Z,41.65
2022-12-14T02:47:48.160Z,42.52
2022-12-14T02:50:37.223Z,41.76
2022-12-14T02:53:41.016Z,42.13
2022-12-14T02:56:14.431Z,41.50
2022-12-14T02:58:49.198Z,41.52
2022-12-14T03:01:22.535Z,41.47
2022-12-14T03:03:50.237Z,41.89
2022-12-14T03:06:27.424Z,41.49
2022-12-14T03:09:11.528Z,41.16
2022-12-14T03:11:52.519Z,41.46
2022-12-14T03:14:27.664Z,41.71
2022-12-14T03:17:01.527Z,41.24
2022-12-14T03:19:35.710Z,41.06
2022-12-14T03:22:30.312Z,41.49
2022-12-14T03:25:14.775Z,41.37
2022-12-14T03:27:52.059Z,40.81
2022-12-14T03:30:37.231Z,41.75
2022-12-14T03:33:14.232Z,41.11
2022-12-14T03:35:57.192Z,40.27
2022-12-14T03:38:33.757Z,40.26
2022-12-14T03:41:11.088Z,40.62
2022-12-14T03:43:57.049Z,40.56
2022-12-14T03:46:48.078Z,40.49
2022-12-14T03:49:37.863Z,41.02
2022-12-14T03:52:20.764Z,40.08
2022-12-14T03:55:10.661Z,40.01
2022-12-14T03:57:47.105Z,39.87
2022-12-14T04:00:19.268Z,40.99
2022-12-14T04:02:58.859Z,40.74
2022-12-14T04:05:48.582Z,39.16
2022-12-14T04:08:45.754Z,39.39
2022-12-14T04:11:35.541Z,39.45
2022-12-14T04:14:37.557Z,39.37
2022-12-14T04:17:30.220Z,39.42
2022-12-14T04:20:05.744Z,39.52
2022-12-14T04:22:38.733Z,39.22
2022-12-14T04:25:37.695Z,39.48
2022-12-14T04:28:39.089Z,40.19
2022-12-14T04:31:11.337Z,39.27
2022-12-14T04:33:49.130Z,39.46
2022-12-14T04:36:42.643Z,39.59
2022-12-14T04:39:17.118Z,38.30
2022-12-14T04:41:49.101Z,37.74
2022-12-14T04:44:29.458Z,37.11
2022-12-14T04:46:59.751Z,37.83
2022-12-14T04:49:29.472Z,36.01
2022-12-14T04:52:01.961Z,37.02
2022-12-14T04:55:00.903Z,35.49
2022-12-14T04:57:34.943Z,34.67
2022-12-14T05:00:03.916Z,33.52
2022-12-14T05:02:47.755Z,33.32
2022-12-14T05:05:18.124Z,33.11
2022-12-14T05:07:55.207Z,31.96
2022-12-14T05:11:04.738Z,30.89
2022-12-14T05:13:48.957Z,30.06
2022-12-14T05:16:22.873Z,30.76
2022-12-14T05:18:50.470Z,31.07
2022-12-14T05:21:47.374Z,30.15
2022-12-14T05:24:16.585Z,28.35
2022-12-14T05:26:44.656Z,26.50
2022-12-14T05:29:12.847Z,25.19
2022-12-14T05:31:40.704Z,25.50
2022-12-14T05:34:08.349Z,24.86
2022-12-14T05:36:36.027Z,25.13
2022-12-14T05:39:03.879Z,24.88
2022-12-14T05:41:31.543Z,23.48
2022-12-14T05:43:59.278Z,23.69
2022-12-14T05:46:27.008Z,22.75
2022-12-14T05:48:54.984Z,22.76
2022-12-14T05:51:22.722Z,23.90
2022-12-14T05:53:50.432Z,22.89
2022-12-14T05:56:18.293Z,22.16
2022-12-14T05:58:50.673Z,22.65
2022-12-14T06:01:19.616Z,21.70
2022-12-14T06:03:48.309Z,20.47
2022-12-14T06:06:16.029Z,19.90
2022-12-14T06:08:46.637Z,20.54
2022-12-14T06:11:19.647Z,20.41
2022-12-14T06:13:48.400Z,20.47
2022-12-14T06:16:26.046Z,20.23
2022-12-14T06:18:56.451Z,20.06
2022-12-14T06:21:29.864Z,19.77
2022-12-14T06:23:58.515Z,19.23
2022-12-14T06:26:27.882Z,19.35
2022-12-14T06:28:56.734Z,19.59
2022-12-14T06:31:30.090Z,18.56
2022-12-14T06:34:00.116Z,18.84
2022-12-14T06:36:36.802Z,18.70
2022-12-14T06:39:08.867Z,17.72
2022-12-14T06:41:36.583Z,18.15
2022-12-14T06:44:05.936Z,18.15
2022-12-14T06:46:34.229Z,17.94
2022-12-14T06:49:02.366Z,18.15
2022-12-14T06:51:30.129Z,18.06
2022-12-14T06:53:58.706Z,18.45
2022-12-14T06:56:28.295Z,18.00
2022-12-14T06:58:56.878Z,18.65
2022-12-14T07:01:25.986Z,18.62
2022-12-14T07:03:56.385Z,18.31
2022-12-14T07:06:25.407Z,18.42
2022-12-14T07:08:55.817Z,18.77
2022-12-14T07:11:24.358Z,19.39
2022-12-14T07:13:53.088Z,19.70
2022-12-14T07:16:23.205Z,19.38
2022-12-14T07:18:52.002Z,19.92
2022-12-14T07:21:21.094Z,20.38
2022-12-14T07:23:50.275Z,20.50
2022-12-14T07:26:26.922Z,20.74
2022-12-14T07:28:55.018Z,20.77
2022-12-14T07:31:25.228Z,21.25
2022-12-14T07:33:57.668Z,21.96
2022-12-14T07:36:27.472Z,22.64
2022-12-14T07:38:56.425Z,23.20
2022-12-14T07:41:31.068Z,24.10
2022-12-14T07:44:01.281Z,24.02
2022-12-14T07:46:30.794Z,24.63
2022-12-14T07:48:59.948Z,25.48
2022-12-14T07:51:33.492Z,25.18
2022-12-14T07:54:02.161Z,25.99
2022-12-14T07:56:32.950Z,26.32
2022-12-14T07:59:02.781Z,26.86
2022-12-14T08:01:34.107Z,27.17
2022-12-14T08:04:11.263Z,27.67
2022-12-14T08:06:40.163Z,27.81
2022-12-14T08:09:09.618Z,28.41
2022-12-14T08:11:37.886Z,28.69
2022-12-14T08:14:11.282Z,29.23
2022-12-14T08:16:38.910Z,29.48
2022-12-14T08:19:06.642Z,29.78
2022-12-14T08:21:34.487Z,30.45
2022-12-14T08:24:02.218Z,30.48
2022-12-14T08:26:35.204Z,31.02
2022-12-14T08:29:04.740Z,31.37
2022-12-14T08:31:34.717Z,31.61
2022-12-14T08:34:03.338Z,31.75
2022-12-14T08:36:35.590Z,32.72
2022-12-14T08:39:10.009Z,32.49
2022-12-14T08:41:37.704Z,32.57
2022-12-14T08:44:05.980Z,33.24
2022-12-14T08:46:35.533Z,33.17
2022-12-14T08:49:03.834Z,33.67
2022-12-14T08:51:31.605Z,33.72
2022-12-14T08:53:59.327Z,34.07
2022-12-14T08:56:28.455Z,34.08
2022-12-14T08:58:57.264Z,33.91
2022-12-14T09:01:33.926Z,34.20
2022-12-14T09:04:05.302Z,34.53
2022-12-14T09:06:38.283Z,34.94
2022-12-14T09:09:15.245Z,35.01
2022-12-14T09:11:45.180Z,35.45
2022-12-14T09:14:13.153Z,35.81
2022-12-14T09:16:41.205Z,35.63
2022-12-14T09:19:09.017Z,36.08
2022-12-14T09:21:36.729Z,36.51
2022-12-14T09:24:06.764Z,36.50
2022-12-14T09:26:34.390Z,36.54
2022-12-14T09:29:02.095Z,36.68
2022-12-14T09:31:29.796Z,37.16
2022-12-14T09:33:59.557Z,36.93
2022-12-14T09:36:29.139Z,37.52
2022-12-14T09:38:58.107Z,37.73
2022-12-14T09:41:34.799Z,38.12
2022-12-14T09:44:27.444Z,38.10
2022-12-14T09:47:06.128Z,38.31
2022-12-14T09:49:54.989Z,39.21
2022-12-14T09:53:01.676Z,39.41
2022-12-14T09:55:49.556Z,39.49
2022-12-14T09:58:22.461Z,39.66
2022-12-14T10:01:14.315Z,39.70
2022-12-14T10:03:48.239Z,39.69
2022-12-14T10:06:41.597Z,39.99
2022-12-14T10:09:35.566Z,40.07
2022-12-14T10:12:17.851Z,40.55
2022-12-14T10:15:02.339Z,40.70
2022-12-14T10:17:58.092Z,41.41
2022-12-14T10:20:28.562Z,41.44
2022-12-14T10:22:56.764Z,41.29
2022-12-14T10:25:29.932Z,41.59
2022-12-14T10:28:11.794Z,41.43
2022-12-14T10:30:42.604Z,42.12
2022-12-14T10:33:23.005Z,41.93
2022-12-14T10:35:55.790Z,42.17
2022-12-14T10:38:27.376Z,42.07
2022-12-14T10:41:11.961Z,42.28
2022-12-14T10:44:19.852Z,42.63
2022-12-14T10:46:50.677Z,43.21
2022-12-14T10:49:48.378Z,43.15
2022-12-14T10:52:23.359Z,43.41
2022-12-14T10:54:54.934Z,43.53
2022-12-14T10:57:27.898Z,43.74
2022-12-14T11:00:08.525Z,44.56
2022-12-14T11:02:43.617Z,44.29
2022-12-14T11:05:36.149Z,44.44
2022-12-14T11:08:07.607Z,45.00
2022-12-14T11:10:39.871Z,45.50
2022-12-14T11:13:15.383Z,45.13
2022-12-14T11:15:44.682Z,45.63
2022-12-14T11:18:18.387Z,45.79
2022-12-14T11:20:55.081Z,45.95
2022-12-14T11:23:35.597Z,45.72
2022-12-14T11:26:06.663Z,45.74
2022-12-14T11:28:56.642Z,46.05
2022-12-14T11:31:30.130Z,46.98
2022-12-14T11:33:59.400Z,46.71
2022-12-14T11:36:33.005Z,47.08
2022-12-14T11:39:15.742Z,46.70
2022-12-14T11:42:04.656Z,47.27
2022-12-14T11:44:39.863Z,48.10
2022-12-14T11:47:12.190Z,47.82
2022-12-14T11:49:39.848Z,48.42
2022-12-14T11:52:18.674Z,48.56
2022-12-14T11:55:11.702Z,48.64
2022-12-14T11:57:53.478Z,48.83
2022-12-14T12:00:23.688Z,48.92
2022-12-14T12:03:04.356Z,48.91
2022-12-14T12:05:33.928Z,49.34
2022-12-14T12:08:03.125Z,49.59
2022-12-14T12:10:42.656Z,49.63
2022-12-14T12:13:41.024Z,50.01
2022-12-14T12:16:12.021Z,49.94
2022-12-14T12:18:57.145Z,50.32
2022-12-14T12:21:32.396Z,50.16
2022-12-14T12:24:18.741Z,50.66
2022-12-14T12:26:51.968Z,51.07
2022-12-14T12:29:46.928Z,51.17
2022-12-14T12:32:39.825Z,50.87
2022-12-14T12:35:17.642Z,51.09
2022-12-14T12:38:03.673Z,50.99
2022-12-14T12:40:40.944Z,51.62
2022-12-14T12:43:24.703Z,51.65
2022-12-14T12:46:28.910Z,52.28
2022-12-14T12:49:11.145Z,51.96
2022-12-14T12:51:50.473Z,52.31
2022-12-14T12:54:30.292Z,52.85
2022-12-14T12:57:00.198Z,52.62
2022-12-14T12:59:30.475Z,53.15
2022-12-14T13:02:02.898Z,53.21
2022-12-14T13:04:38.325Z,53.25
2022-12-14T13:07:16.329Z,53.76
2022-12-14T13:09:50.463Z,53.85
2022-12-14T13:12:49.312Z,54.16
2022-12-14T13:15:57.232Z,53.99
2022-12-14T13:18:56.478Z,54.32
2022-12-14T13:21:39.192Z,54.28
2022-12-14T13:24:13.058Z,54.41
2022-12-14T13:26:58.492Z,54.39
2022-12-14T13:29:35.151Z,54.14
2022-12-14T13:32:33.828Z,54.56
2022-12-14T13:35:32.687Z,54.79
2022-12-14T13:38:33.134Z,55.01
2022-12-14T13:41:19.781Z,55.08
2022-12-14T13:43:53.440Z,55.25
2022-12-14T13:46:24.259Z,54.80
2022-12-14T13:48:55.856Z,55.05
2022-12-14T13:51:40.943Z,54.70
2022-12-14T13:54:29.648Z,55.46
2022-12-14T13:57:05.657Z,55.35
2022-12-14T13:59:40.557Z,55.60
2022-12-14T14:02:28.203Z,55.21
2022-12-14T14:05:19.097Z,55.38
2022-12-14T14:07:54.059Z,55.31
2022-12-14T14:10:35.132Z,55.33
2022-12-14T14:13:22.559Z,55.08
2022-12-14T14:16:26.853Z,55.66
2022-12-14T14:18:53.081Z,55.90
2022-12-14T14:21:20.971Z,55.37
2022-12-14T14:23:58.796Z,55.36
2022-12-14T14:26:34.435Z,55.88
2022-12-14T14:29:23.855Z,56.13
2022-12-14T14:31:58.909Z,55.58
2022-12-14T14:34:48.830Z,55.77
2022-12-14T14:37:22.492Z,55.88
2022-12-14T14:40:29.255Z,55.75
2022-12-14T14:43:27.533Z,56.05
2022-12-14T14:45:58.848Z,55.84
2022-12-14T14:48:38.113Z,56.40
2022-12-14T14:51:11.904Z,56.26
2022-12-14T14:53:39.854Z,56.38
2022-12-14T14:56:35.065Z,57.01
2022-12-14T14:59:37.193Z,56.96
2022-12-14T15:02:38.515Z,57.43
2022-12-14T15:07:56.598Z,57.56
2022-12-14T15:10:39.339Z,57.71
2022-12-14T15:13:15.208Z,57.28
2022-12-14T15:15:48.797Z,57.58
2022-12-14T15:18:20.814Z,57.87
2022-12-14T15:20:58.258Z,58.03
2022-12-14T15:23:31.246Z,58.26
2022-12-14T15:26:04.558Z,58.07
2022-12-14T15:28:32.483Z,58.57
2022-12-14T15:31:00.507Z,58.80
2022-12-14T15:33:33.592Z,58.83
2022-12-14T15:36:05.653Z,59.50
2022-12-14T15:38:37.006Z,59.74
2022-12-14T15:41:16.360Z,59.85
2022-12-14T15:43:46.534Z,60.24
2022-12-14T15:46:26.460Z,59.97
2022-12-14T15:49:06.227Z,60.10
2022-12-14T15:51:38.097Z,59.98
2022-12-14T15:54:07.937Z,60.28
2022-12-14T15:56:44.979Z,60.49
2022-12-14T15:59:31.962Z,61.09
2022-12-14T16:02:07.324Z,61.15
2022-12-14T16:04:37.147Z,61.16
2022-12-14T16:07:13.562Z,61.59
2022-12-14T16:09:50.489Z,61.65
2022-12-14T16:12:45.465Z,61.55
2022-12-14T16:15:26.286Z,61.50
2022-12-14T16:18:01.605Z,61.97
2022-12-14T16:20:36.374Z,62.05
2022-12-14T16:23:16.041Z,61.90
2022-12-14T16:26:03.534Z,62.19
2022-12-14T16:28:37.359Z,62.71
2022-12-14T16:31:08.439Z,63.21
2022-12-14T16:33:37.663Z,63.72
2022-12-14T16:36:18.990Z,63.42
2022-12-14T16:39:02.470Z,64.13
2022-12-14T16:41:38.411Z,63.74
2022-12-14T16:44:20.094Z,64.29
2022-12-14T16:47:04.108Z,64.56
2022-12-14T16:49:40.571Z,64.79
2022-12-14T16:52:34.098Z,64.86
2022-12-14T16:55:17.316Z,65.44
2022-12-14T16:57:54.971Z,65.39
2022-12-14T17:00:34.120Z,65.22
2022-12-14T17:03:23.406Z,65.58
2022-12-14T17:05:55.518Z,65.74
2022-12-14T17:08:23.136Z,66.22
2022-12-14T17:10:51.207Z,65.41
2022-12-14T17:13:18.846Z,65.94
2022-12-14T17:16:04.105Z,66.47
2022-12-14T17:18:39.633Z,66.92
2022-12-14T17:21:09.139Z,66.34
2022-12-14T17:23:42.360Z,66.81
2022-12-14T17:26:42.424Z,66.60
2022-12-14T17:29:25.905Z,66.89
2022-12-14T17:31:58.168Z,67.42
2022-12-14T17:34:25.923Z,67.36
2022-12-14T17:36:53.553Z,67.29
2022-12-14T17:39:21.117Z,67.38
2022-12-14T17:41:49.098Z,67.55
2022-12-14T17:44:20.021Z,67.70
2022-12-14T17:46:50.207Z,67.14
2022-12-14T17:49:34.334Z,66.86
2022-12-14T17:52:04.699Z,67.00
2022-12-14T17:54:32.672Z,67.02
2022-12-14T17:57:00.808Z,67.14
2022-12-14T17:59:28.565Z,67.28
2022-12-14T18:01:56.354Z,67.44
2022-12-14T18:04:24.003Z,67.26
2022-12-14T18:06:51.877Z,67.28
2022-12-14T18:09:19.467Z,67.86
2022-12-14T18:12:14.421Z,67.44
2022-12-14T18:14:34.463Z,68.10
2022-12-14T18:17:04.370Z,67.78
2022-12-14T18:19:34.138Z,68.24
2022-12-14T18:22:01.692Z,68.22
2022-12-14T18:24:29.274Z,67.73
2022-12-14T18:26:56.949Z,67.79
2022-12-14T18:29:24.874Z,68.52
2022-12-14T18:31:53.088Z,68.54
2022-12-14T18:34:20.614Z,68.95
2022-12-14T18:36:48.339Z,68.51
2022-12-14T18:39:15.796Z,69.64
2022-12-14T18:41:43.333Z,68.73
2022-12-14T18:44:11.573Z,69.35
2022-12-14T18:46:39.843Z,68.88
2022-12-14T18:49:07.448Z,69.16
2022-12-14T18:51:35.071Z,68.98
2022-12-14T18:54:03.630Z,69.68
2022-12-14T18:56:31.314Z,69.14
2022-12-14T18:59:00.666Z,69.62
2022-12-14T19:01:28.520Z,69.55
2022-12-14T19:03:56.332Z,69.75
2022-12-14T19:09:14.859Z,69.72
2022-12-14T19:11:42.892Z,69.39
2022-12-14T19:14:10.943Z,69.66
2022-12-14T19:16:38.619Z,69.84
2022-12-14T19:19:06.379Z,69.64
2022-12-14T19:21:33.880Z,69.89
2022-12-14T19:24:01.474Z,69.57
2022-12-14T19:26:29.710Z,69.64
2022-12-14T19:28:57.462Z,69.66
2022-12-14T19:31:25.067Z,68.99
2022-12-14T19:33:54.042Z,69.12
2022-12-14T19:36:21.655Z,68.99
2022-12-14T19:38:49.666Z,69.81
2022-12-14T19:41:20.813Z,70.44
2022-12-14T19:43:48.726Z,69.67
2022-12-14T19:46:17.926Z,69.69
2022-12-14T19:48:46.142Z,69.48
2022-12-14T19:51:14.543Z,69.62
2022-12-14T19:53:43.670Z,69.72
2022-12-14T19:56:13.647Z,70.13
2022-12-14T19:58:41.405Z,70.50
2022-12-14T20:01:11.108Z,70.89
2022-12-14T20:03:39.281Z,70.37
2022-12-14T20:06:08.152Z,70.91
2022-12-14T20:08:36.455Z,70.59
2022-12-14T20:11:08.885Z,71.42
2022-12-14T20:13:37.046Z,71.56
2022-12-14T20:16:04.759Z,71.97
2022-12-14T20:18:32.226Z,72.13
2022-12-14T20:21:06.093Z,72.51
2022-12-14T20:23:37.873Z,72.25
2022-12-14T20:26:08.352Z,72.59
2022-12-14T20:28:36.129Z,72.66
2022-12-14T20:31:07.649Z,72.93
2022-12-14T20:33:36.578Z,73.74
2022-12-14T20:36:04.721Z,73.74
2022-12-14T20:38:32.279Z,73.87
2022-12-14T20:41:06.607Z,73.58
2022-12-14T20:43:36.235Z,73.94
2022-12-14T20:46:04.742Z,73.97
2022-12-14T20:48:33.404Z,74.31
2022-12-14T20:51:04.150Z,74.21
2022-12-14T20:53:32.034Z,74.34
2022-12-14T20:56:05.197Z,74.90
2022-12-14T20:58:32.695Z,74.81
2022-12-14T21:01:09.444Z,75.75
2022-12-14T21:03:37.323Z,75.51
2022-12-14T21:06:05.511Z,75.77
2022-12-14T21:08:53.039Z,76.33
2022-12-14T21:11:38.933Z,77.02
2022-12-14T21:14:06.409Z,77.45
2022-12-14T21:16:34.278Z,77.47
2022-12-14T21:19:01.927Z,77.68
2022-12-14T21:21:29.473Z,78.48
2022-12-14T21:23:57.268Z,78.58
2022-12-14T21:26:26.957Z,78.95
2022-12-14T21:28:55.880Z,79.84
2022-12-14T21:31:23.603Z,80.06
2022-12-14T21:33:51.206Z,80.54
2022-12-14T21:36:18.607Z,80.20
2022-12-14T21:38:46.125Z,80.15
2022-12-14T21:41:31.854Z,80.90
2022-12-14T21:44:00.166Z,81.02
2022-12-14T21:46:29.506Z,81.42
2022-12-14T21:48:57.425Z,81.25
2022-12-14T21:51:24.921Z,81.81
2022-12-14T21:54:01.105Z,82.10
2022-12-14T21:56:53.228Z,81.41
2022-12-14T21:59:35.607Z,83.09
2022-12-14T22:02:07.900Z,82.26
2022-12-14T22:04:39.778Z,82.40
2022-12-14T22:07:07.726Z,83.10
2022-12-14T22:09:35.171Z,83.73
2022-12-14T22:12:02.720Z,84.45
2022-12-14T22:14:30.225Z,84.34
2022-12-14T22:16:57.936Z,85.12
2022-12-14T22:19:25.953Z,86.01
2022-12-14T22:21:53.956Z,86.83
2022-12-14T22:24:23.501Z,86.80
2022-12-14T22:26:51.520Z,87.15
2022-12-14T22:29:21.690Z,88.10
2022-12-14T22:31:53.088Z,88.37
2022-12-14T22:34:23.406Z,88.54
2022-12-14T22:36:52.847Z,89.42
2022-12-14T22:39:20.629Z,90.52
2022-12-14T22:41:49.556Z,90.56
2022-12-14T22:44:17.063Z,90.35
2022-12-14T22:46:44.644Z,90.55
2022-12-14T22:49:16.938Z,90.95
2022-12-14T22:51:44.536Z,90.18
2022-12-14T22:54:33.126Z,90.36
2022-12-14T22:57:09.424Z,90.64
2022-12-14T22:59:44.184Z,90.76
2022-12-14T23:02:12.023Z,90.76
2022-12-14T23:04:39.846Z,91.57
2022-12-14T23:07:07.776Z,91.73
2022-12-14T23:09:53.722Z,92.05
2022-12-14T23:12:40.327Z,92.60
2022-12-14T23:15:26.575Z,93.07
2022-12-14T23:18:24.102Z,93.32
2022-12-14T23:21:10.306Z,93.79
2022-12-14T23:23:57.655Z,94.01
2022-12-14T23:26:43.911Z,94.09
2022-12-14T23:29:29.624Z,93.41
2022-12-14T23:32:16.131Z,93.95
2022-12-14T23:35:01.869Z,93.88
2022-12-14T23:37:49.246Z,94.07
2022-12-14T23:40:35.104Z,93.62
2022-12-14T23:43:32.757Z,94.23
2022-12-14T23:46:19.955Z,94.19
2022-12-14T23:49:10.435Z,93.56
2022-12-14T23:51:59.662Z,93.01
2022-12-14T23:54:45.286Z,92.04
2022-12-14T23:57:30.950Z,91.42
